ADDS METAR Data INFO
IDs: Format: Raw Decoded Include TAF

Data at: 0901 UTC 20 Oct 2017

KALX 200855Z AUTO 01003KT 10SM CLR 09/08 A3025 RMK AO2 T00900082
KALX 200835Z AUTO 00000KT 10SM CLR 09/09 A3025 RMK AO2 T00920085
KALX 200815Z AUTO 01004KT 10SM CLR 09/09 A3024 RMK AO2 T00930085
KALX 200755Z AUTO 00000KT 10SM CLR 10/09 A3024 RMK AO2 T00950087
KALX 200735Z AUTO 00000KT 10SM CLR 10/09 A3025 RMK AO2 T00970090
KALX 200715Z AUTO 00000KT 10SM CLR 10/09 A3025 RMK AO2 T00970090
KALX 200655Z AUTO 36003KT 10SM CLR 10/09 A3025 RMK AO2 T01000092
KALX 200635Z AUTO 00000KT 10SM CLR 10/09 A3025 RMK AO2 T01000094
KALX 200615Z AUTO 00000KT 10SM CLR 10/09 A3025 RMK AO2 T00970089
KALX 200555Z AUTO 00000KT 10SM CLR 10/09 A3025 RMK AO2 T01000090 10157 20096
KALX 200535Z AUTO 00000KT 10SM CLR 11/10 A3025 RMK AO2 T01110104
KALX 200515Z AUTO 00000KT 10SM CLR 11/11 A3025 RMK AO2 T01110105
KALX 200455Z AUTO 00000KT 10SM CLR 10/10 A3025 RMK AO2 T01010095 402390072
KALX 200435Z AUTO 00000KT 10SM CLR 11/10 A3025 RMK AO2 T01090101
KALX 200415Z AUTO 00000KT 10SM CLR 10/09 A3025 RMK AO2 T01030093
KALX 200355Z AUTO 00000KT 10SM CLR 11/11 A3026 RMK AO2 T01130106
KALX 200335Z AUTO 00000KT 10SM CLR 12/12 A3025 RMK AO2 T01210115
KALX 200315Z AUTO 00000KT 10SM CLR 12/11 A3025 RMK AO2 T01180111
KALX 200255Z AUTO 00000KT 10SM CLR 12/11 A3025 RMK AO2 T01190113
KALX 200235Z AUTO 00000KT 10SM CLR 12/11 A3025 RMK AO2 T01200112
KALX 200215Z AUTO 00000KT 10SM CLR 12/11 A3024 RMK AO2 T01200110
KALX 200155Z AUTO 00000KT 10SM CLR 12/12 A3024 RMK AO2 T01240115
KALX 200135Z AUTO 00000KT 10SM CLR 14/13 A3024 RMK AO2 T01360125
KALX 200115Z AUTO 00000KT 10SM CLR 13/12 A3024 RMK AO2 T01320124
KALX 200055Z AUTO 00000KT 10SM CLR 15/13 A3024 RMK AO2 T01450131
KALX 200035Z AUTO 00000KT 10SM CLR 15/13 A3023 RMK AO2 T01460133
KALX 200015Z AUTO 00000KT 10SM CLR 14/13 A3023 RMK AO2 T01440131
KALX 192355Z AUTO 00000KT 10SM CLR 16/14 A3023 RMK AO2 T01550138 10239 20155
KALX 192335Z AUTO 00000KT 10SM CLR 17/15 A3022 RMK AO2 T01670149
KALX 192315Z AUTO 00000KT 10SM CLR 17/14 A3022 RMK AO2 T01730143
KALX 192255Z AUTO 00000KT 10SM CLR 19/15 A3022 RMK AO2 T01920151
KALX 192235Z AUTO 00000KT 10SM CLR 22/14 A3022 RMK AO2 T02180136
KALX 192215Z AUTO 00000KT 10SM CLR 23/13 A3022 RMK AO2 T02290131
KALX 192155Z AUTO 09003KT 10SM CLR 23/13 A3022 RMK AO2 T02330126
KALX 192135Z AUTO 08003KT 10SM CLR 24/12 A3022 RMK AO2 T02360124
KALX 192115Z AUTO 08003KT 10SM CLR 24/11 A3022 RMK AO2 T02370112
KALX 192055Z AUTO 05003KT 10SM CLR 24/12 A3022 RMK AO2 T02360123
KALX 192035Z AUTO 11004KT 10SM CLR 24/12 A3022 RMK AO2 T02360120
KALX 192015Z AUTO 10003KT 10SM CLR 24/13 A3023 RMK AO2 T02350125
KALX 191955Z AUTO 00000KT 10SM CLR 23/13 A3023 RMK AO2 T02340125
KALX 191935Z AUTO 35003KT 10SM CLR 23/12 A3023 RMK AO2 T02280121
KALX 191915Z AUTO 09003KT 10SM CLR 23/13 A3024 RMK AO2 T02340126
KALX 191855Z AUTO 00000KT 10SM CLR 22/12 A3024 RMK AO2 T02240123
KALX 191835Z AUTO 10004KT 10SM CLR 22/12 A3025 RMK AO2 T02200116
KALX 191815Z AUTO 00000KT 10SM CLR 21/12 A3026 RMK AO2 T02140121
KALX 191755Z AUTO 10004KT 10SM CLR 22/12 A3028 RMK AO2 T02190121 10219 20075
KALX 191735Z AUTO 08003KT 10SM CLR 21/12 A3029 RMK AO2 T02130123
KALX 191715Z AUTO 10004KT 10SM CLR 21/12 A3029 RMK AO2 T02080119
KALX 191655Z AUTO 09003KT 10SM CLR 21/12 A3031 RMK AO2 T02050121
KALX 191630Z AUTO 03003KT 10SM CLR 19/12 A3031 RMK AO2 T01940119
KALX 191615Z AUTO 00000KT 10SM CLR 19/12 A3031 RMK AO2 T01930120
KALX 191555Z AUTO 00000KT 10SM CLR 18/11 A3031 RMK AO2 T01840112
KALX 191535Z AUTO 08004KT 10SM CLR 18/11 A3032 RMK AO2 T01750106
KALX 191515Z AUTO 09004KT 10SM CLR 17/10 A3032 RMK AO2 T01710104
KALX 191455Z AUTO 05004KT 10SM CLR 16/09 A3032 RMK AO2 T01560093
KALX 191435Z AUTO 06004KT 10SM CLR 15/09 A3032 RMK AO2 T01480087
KALX 191415Z AUTO 05004KT 10SM CLR 14/08 A3031 RMK AO2 T01360080
KALX 191355Z AUTO 07005KT 10SM CLR 13/08 A3031 RMK AO2 T01280076
KALX 191335Z AUTO 08004KT 10SM CLR 12/07 A3030 RMK AO2 T01180072
KALX 191315Z AUTO 05003KT 10SM CLR 11/08 A3030 RMK AO2 T01060075
KALX 191255Z AUTO 00000KT 10SM CLR 09/07 A3029 RMK AO2 T00900070
KALX 191235Z AUTO 01003KT 10SM CLR 08/07 A3029 RMK AO2 T00810066
KALX 191215Z AUTO 00000KT 10SM CLR 08/06 A3029 RMK AO2 T00760064
KALX 191155Z AUTO 01003KT 10SM CLR 08/07 A3028 RMK AO2 T00760065 10097 20072
KALX 191135Z AUTO 00000KT 10SM CLR 08/07 A3027 RMK AO2 T00760065
KALX 191115Z AUTO 01003KT 10SM CLR 08/07 A3027 RMK AO2 T00760065
KALX 191055Z AUTO 00000KT 10SM CLR 08/06 A3026 RMK AO2 T00750063
KALX 191035Z AUTO 00000KT 10SM CLR 08/07 A3026 RMK AO2 T00770065
KALX 191015Z AUTO 00000KT 10SM CLR 08/07 A3026 RMK AO2 T00780065
KALX 190955Z AUTO 00000KT 10SM CLR 08/07 A3025 RMK AO2 T00780066
KALX 190935Z AUTO 00000KT 10SM CLR 08/07 A3025 RMK AO2 T00800067
KALX 190915Z AUTO 00000KT 10SM CLR 08/07 A3025 RMK AO2 T00790066
KALX 190855Z AUTO 00000KT 10SM CLR 08/07 A3025 RMK AO2 T00810068
KALX 190835Z AUTO 36003KT 10SM CLR 08/07 A3024 RMK AO2 T00830071
KALX 190815Z AUTO 00000KT 10SM CLR 07/07 A3024 RMK AO2 T00730067
KALX 190755Z AUTO 00000KT 10SM CLR 07/07 A3025 RMK AO2 T00740065
KALX 190735Z AUTO 00000KT 10SM CLR 08/07 A3025 RMK AO2 T00750067
KALX 190715Z AUTO 00000KT 10SM CLR 08/07 A3025 RMK AO2 T00800073
KALX 190655Z AUTO 00000KT 10SM CLR 08/07 A3025 RMK AO2 T00760072
KALX 190635Z AUTO 00000KT 10SM CLR 08/07 A3025 RMK AO2 T00790070
KALX 190615Z AUTO 00000KT 10SM CLR 09/08 A3026 RMK AO2 T00940080
KALX 190555Z AUTO 01004KT 10SM CLR 10/08 A3026 RMK AO2 T00970081 10144 20086
KALX 190535Z AUTO 01003KT 10SM CLR 10/08 A3026 RMK AO2 T01040082
KALX 190515Z AUTO 33003KT 10SM CLR 09/08 A3026 RMK AO2 T00870077
KALX 190455Z AUTO 00000KT 10SM CLR 09/08 A3026 RMK AO2 T00880078 402200065
KALX 190435Z AUTO 00000KT 10SM CLR 10/08 A3026 RMK AO2 T00950081
KALX 190415Z AUTO 00000KT 10SM CLR 09/08 A3027 RMK AO2 T00930081
KALX 190355Z AUTO 00000KT 10SM CLR 10/09 A3027 RMK AO2 T00980087
KALX 190335Z AUTO 00000KT 10SM CLR 10/09 A3028 RMK AO2 T01040087
KALX 190315Z AUTO 00000KT 10SM CLR 11/09 A3028 RMK AO2 T01110087
KALX 190255Z AUTO 00000KT 10SM CLR 11/09 A3028 RMK AO2 T01110090
KALX 190235Z AUTO 00000KT 10SM CLR 11/09 A3027 RMK AO2 T01060092
KALX 190215Z AUTO 00000KT 10SM CLR 11/10 A3027 RMK AO2 T01080095
KALX 190155Z AUTO 00000KT 10SM CLR 11/10 A3027 RMK AO2 T01130098
KALX 190135Z AUTO 00000KT 10SM CLR 12/10 A3027 RMK AO2 T01210102
KALX 190115Z AUTO 00000KT 10SM CLR 12/11 A3026 RMK AO2 T01210105
KALX 190055Z AUTO 00000KT 10SM CLR 13/10 A3026 RMK AO2 T01300102
KALX 190035Z AUTO 00000KT 10SM CLR 14/11 A3026 RMK AO2 T01360105
KALX 190015Z AUTO 00000KT 10SM CLR 14/11 A3025 RMK AO2 T01360113
KALX 182355Z AUTO 00000KT 10SM CLR 15/13 A3025 RMK AO2 T01460127 10220 20145
KALX 182335Z AUTO 00000KT 10SM CLR 16/11 A3024 RMK AO2 T01600113
KALX 182315Z AUTO 00000KT 10SM CLR 17/12 A3023 RMK AO2 T01660124
KALX 182255Z AUTO 00000KT 10SM CLR 19/10 A3023 RMK AO2 T01910099
KALX 182235Z AUTO 07003KT 10SM CLR 20/09 A3023 RMK AO2 T02010088
KALX 182215Z AUTO 06003KT 10SM CLR 21/08 A3023 RMK AO2 T02070081
KALX 182155Z AUTO 05004KT 10SM CLR 21/08 A3023 RMK AO2 T02110075
KALX 182135Z AUTO 00000KT 10SM CLR 22/08 A3023 RMK AO2 T02150078
KALX 182115Z AUTO 06005KT 10SM CLR 22/07 A3023 RMK AO2 T02160072